createdAt,value
2023-05-23T00:00:14.652Z,16.40
2023-05-23T00:00:39.304Z,16.40
2023-05-23T00:01:01.571Z,16.39
2023-05-23T00:01:25.125Z,16.39
2023-05-23T00:01:47.697Z,16.39
2023-05-23T00:02:10.160Z,16.39
2023-05-23T00:02:32.670Z,16.39
2023-05-23T00:02:55.381Z,16.38
2023-05-23T00:03:18.047Z,16.39
2023-05-23T00:03:40.885Z,16.39
2023-05-23T00:04:06.167Z,16.39
2023-05-23T00:04:28.910Z,16.40
2023-05-23T00:04:52.738Z,16.41
2023-05-23T00:05:16.036Z,16.42
2023-05-23T00:05:38.537Z,16.44
2023-05-23T00:06:01.577Z,16.44
2023-05-23T00:06:23.886Z,16.46
2023-05-23T00:06:50.871Z,16.47
2023-05-23T00:07:13.495Z,16.48
2023-05-23T00:07:35.974Z,16.48
2023-05-23T00:07:58.289Z,16.49
2023-05-23T00:08:20.695Z,16.50
2023-05-23T00:08:43.170Z,16.50
2023-05-23T00:09:05.569Z,16.49
2023-05-23T00:09:27.841Z,16.48
2023-05-23T00:09:50.113Z,16.47
2023-05-23T00:10:12.451Z,16.47
2023-05-23T00:10:34.713Z,16.46
2023-05-23T00:10:57.068Z,16.45
2023-05-23T00:11:20.664Z,16.44
2023-05-23T00:11:46.159Z,16.43
2023-05-23T00:12:09.052Z,16.42
2023-05-23T00:12:31.441Z,16.41
2023-05-23T00:12:53.842Z,16.40
2023-05-23T00:13:16.244Z,16.40
2023-05-23T00:13:40.068Z,16.39
2023-05-23T00:14:02.683Z,16.39
2023-05-23T00:14:25.273Z,16.38
2023-05-23T00:14:47.994Z,16.37
2023-05-23T00:15:10.357Z,16.37
2023-05-23T00:15:34.105Z,16.36
2023-05-23T00:15:56.498Z,16.36
2023-05-23T00:16:19.040Z,16.35
2023-05-23T00:16:43.066Z,16.35
2023-05-23T00:17:06.248Z,16.35
2023-05-23T00:17:28.972Z,16.36
2023-05-23T00:17:51.714Z,16.37
2023-05-23T00:18:14.194Z,16.38
2023-05-23T00:18:43.327Z,16.39
2023-05-23T00:19:05.978Z,16.40
2023-05-23T00:19:28.580Z,16.41
2023-05-23T00:19:51.321Z,16.42
2023-05-23T00:20:13.763Z,16.43
2023-05-23T00:20:36.944Z,16.43
2023-05-23T00:21:00.172Z,16.43
2023-05-23T00:21:22.584Z,16.42
2023-05-23T00:21:48.839Z,16.41
2023-05-23T00:22:12.084Z,16.41
2023-05-23T00:22:34.455Z,16.40
2023-05-23T00:22:59.677Z,16.40
2023-05-23T00:23:22.834Z,16.39
2023-05-23T00:23:45.226Z,16.39
2023-05-23T00:24:07.832Z,16.38
2023-05-23T00:24:30.079Z,16.37
2023-05-23T00:24:52.542Z,16.37
2023-05-23T00:25:14.804Z,16.36
2023-05-23T00:25:37.568Z,16.36
2023-05-23T00:26:00.657Z,16.35
2023-05-23T00:26:24.372Z,16.35
2023-05-23T00:26:47.217Z,16.35
2023-05-23T00:27:09.776Z,16.35
2023-05-23T00:27:32.070Z,16.34
2023-05-23T00:27:54.469Z,16.34
2023-05-23T00:28:16.873Z,16.33
2023-05-23T00:28:39.283Z,16.33
2023-05-23T00:29:01.775Z,16.32
2023-05-23T00:29:24.166Z,16.32
2023-05-23T00:29:47.075Z,16.32
2023-05-23T00:30:09.898Z,16.32
2023-05-23T00:30:32.998Z,16.32
2023-05-23T00:30:56.221Z,16.33
2023-05-23T00:31:18.729Z,16.34
2023-05-23T00:31:41.097Z,16.35
2023-05-23T00:32:03.433Z,16.36
2023-05-23T00:32:25.859Z,16.37
2023-05-23T00:32:48.292Z,16.39
2023-05-23T00:33:14.184Z,16.40
2023-05-23T00:33:36.532Z,16.41
2023-05-23T00:33:58.977Z,16.42
2023-05-23T00:34:21.537Z,16.43
2023-05-23T00:34:45.531Z,16.44
2023-05-23T00:35:08.217Z,16.44
2023-05-23T00:35:30.612Z,16.44
2023-05-23T00:35:53.010Z,16.44
2023-05-23T00:36:15.636Z,16.44
2023-05-23T00:36:38.216Z,16.43
2023-05-23T00:37:02.455Z,16.43
2023-05-23T00:37:24.854Z,16.43
2023-05-23T00:37:52.007Z,16.43
2023-05-23T00:38:14.768Z,16.42
2023-05-23T00:38:37.164Z,16.42
2023-05-23T00:38:59.561Z,16.41
2023-05-23T00:39:22.019Z,16.41
2023-05-23T00:39:44.977Z,16.41
2023-05-23T00:40:08.564Z,16.40
2023-05-23T00:40:30.997Z,16.40
2023-05-23T00:40:53.400Z,16.39
2023-05-23T00:41:16.408Z,16.39
2023-05-23T00:41:39.010Z,16.39
2023-05-23T00:42:04.167Z,16.39
2023-05-23T00:42:26.464Z,16.38
2023-05-23T00:42:48.918Z,16.38
2023-05-23T00:43:11.288Z,16.37
2023-05-23T00:43:35.293Z,16.36
2023-05-23T00:44:00.003Z,16.36
2023-05-23T00:44:22.958Z,16.35
2023-05-23T00:44:45.458Z,16.35
2023-05-23T00:45:08.172Z,16.35
2023-05-23T00:45:30.969Z,16.36
2023-05-23T00:45:53.469Z,16.36
2023-05-23T00:46:15.984Z,16.37
2023-05-23T00:46:38.318Z,16.38
2023-05-23T00:47:00.868Z,16.38
2023-05-23T00:47:23.394Z,16.39
2023-05-23T00:47:46.175Z,16.39
2023-05-23T00:48:09.218Z,16.40
2023-05-23T00:48:31.593Z,16.40
2023-05-23T00:48:54.129Z,16.40
2023-05-23T00:49:20.340Z,16.40
2023-05-23T00:49:43.084Z,16.40
2023-05-23T00:50:07.280Z,16.39
2023-05-23T00:50:30.019Z,16.38
2023-05-23T00:50:52.722Z,16.37
2023-05-23T00:51:15.226Z,16.37
2023-05-23T00:51:37.470Z,16.36
2023-05-23T00:52:01.151Z,16.35
2023-05-23T00:52:23.404Z,16.35
2023-05-23T00:52:45.942Z,16.34
2023-05-23T00:53:08.236Z,16.34
2023-05-23T00:53:30.564Z,16.33
2023-05-23T00:53:52.931Z,16.33
2023-05-23T00:54:15.535Z,16.32
2023-05-23T00:54:38.046Z,16.32
2023-05-23T00:55:00.447Z,16.31
2023-05-23T00:55:23.854Z,16.31
2023-05-23T00:55:46.188Z,16.31
2023-05-23T00:56:08.486Z,16.30
2023-05-23T00:56:30.765Z,16.30
2023-05-23T00:56:53.600Z,16.30
2023-05-23T00:57:15.898Z,16.30
2023-05-23T00:57:41.237Z,16.31
2023-05-23T00:58:03.658Z,16.32
2023-05-23T00:58:27.029Z,16.33
2023-05-23T00:58:49.296Z,16.34
2023-05-23T00:59:12.848Z,16.35
2023-05-23T00:59:36.313Z,16.37
2023-05-23T00:59:58.572Z,16.37
2023-05-23T01:00:21.171Z,16.38
2023-05-23T01:00:45.295Z,16.39
2023-05-23T01:01:08.219Z,16.39
2023-05-23T01:01:30.857Z,16.39
2023-05-23T01:01:53.796Z,16.39
2023-05-23T01:02:16.435Z,16.38
2023-05-23T01:02:45.415Z,16.38
2023-05-23T01:03:08.330Z,16.38
2023-05-23T01:03:30.923Z,16.37
2023-05-23T01:03:53.610Z,16.36
2023-05-23T01:04:17.044Z,16.36
2023-05-23T01:04:39.438Z,16.35
2023-05-23T01:05:02.621Z,16.35
2023-05-23T01:05:25.437Z,16.35
2023-05-23T01:05:47.950Z,16.34
2023-05-23T01:06:10.290Z,16.32
2023-05-23T01:06:33.900Z,16.32
2023-05-23T01:06:56.368Z,16.31
2023-05-23T01:07:18.783Z,16.29
2023-05-23T01:07:41.864Z,16.29
2023-05-23T01:08:04.468Z,16.28
2023-05-23T01:08:26.966Z,16.27
2023-05-23T01:08:49.283Z,16.27
2023-05-23T01:09:11.763Z,16.26
2023-05-23T01:09:34.098Z,16.25
2023-05-23T01:09:56.575Z,16.25
2023-05-23T01:10:22.457Z,16.24
2023-05-23T01:10:44.944Z,16.23
2023-05-23T01:11:08.514Z,16.23
2023-05-23T01:11:36.254Z,16.23
2023-05-23T01:12:01.564Z,16.24
2023-05-23T01:12:35.963Z,16.25
2023-05-23T01:12:58.444Z,16.25
2023-05-23T01:13:22.206Z,16.26
2023-05-23T01:13:47.948Z,16.27
2023-05-23T01:14:11.376Z,16.27
2023-05-23T01:14:43.130Z,16.27
2023-05-23T01:15:12.078Z,16.28
2023-05-23T01:15:38.639Z,16.27
2023-05-23T01:16:03.507Z,16.27
2023-05-23T01:16:30.188Z,16.26
2023-05-23T01:16:53.859Z,16.25
2023-05-23T01:17:27.315Z,16.24
2023-05-23T01:17:52.426Z,16.23
2023-05-23T01:18:33.868Z,16.22
2023-05-23T01:18:59.609Z,16.21
2023-05-23T01:19:28.258Z,16.20
2023-05-23T01:19:51.234Z,16.19
2023-05-23T01:20:30.454Z,16.19
2023-05-23T01:20:56.822Z,16.18
2023-05-23T01:21:19.169Z,16.17
2023-05-23T01:21:41.535Z,16.17
2023-05-23T01:22:06.701Z,16.17
2023-05-23T01:22:48.698Z,16.16
2023-05-23T01:23:12.257Z,16.16
2023-05-23T01:24:09.949Z,16.15
2023-05-23T01:24:36.645Z,16.14
2023-05-23T01:25:31.576Z,16.13
2023-05-23T01:26:02.949Z,16.13
2023-05-23T01:26:52.173Z,16.13
2023-05-23T01:27:24.474Z,16.14
2023-05-23T01:27:48.977Z,16.16
2023-05-23T01:28:11.950Z,16.18
2023-05-23T01:28:38.128Z,16.20
2023-05-23T01:29:11.651Z,16.22
2023-05-23T01:29:35.995Z,16.23
2023-05-23T01:29:58.905Z,16.24
2023-05-23T01:30:21.514Z,16.26
2023-05-23T01:30:45.025Z,16.27
2023-05-23T01:31:07.552Z,16.27
2023-05-23T01:31:30.357Z,16.28
2023-05-23T01:31:53.696Z,16.29
2023-05-23T01:32:16.350Z,16.29
2023-05-23T01:32:38.791Z,16.29
2023-05-23T01:33:04.586Z,16.29
2023-05-23T01:33:28.058Z,16.29
2023-05-23T01:33:50.857Z,16.29
2023-05-23T01:34:13.866Z,16.29
2023-05-23T01:34:36.368Z,16.28
2023-05-23T01:34:58.979Z,16.28
2023-05-23T01:35:27.859Z,16.28
2023-05-23T01:35:50.721Z,16.27
2023-05-23T01:36:13.739Z,16.27
2023-05-23T01:36:39.606Z,16.27
2023-05-23T01:37:02.111Z,16.27
2023-05-23T01:37:24.713Z,16.27
2023-05-23T01:37:47.522Z,16.27
2023-05-23T01:38:09.918Z,16.26
2023-05-23T01:38:32.446Z,16.26
2023-05-23T01:38:56.074Z,16.26
2023-05-23T01:39:18.471Z,16.25
2023-05-23T01:39:40.830Z,16.25
2023-05-23T01:40:03.449Z,16.25
2023-05-23T01:40:26.263Z,16.25
2023-05-23T01:40:48.781Z,16.26
2023-05-23T01:41:11.482Z,16.26
2023-05-23T01:41:33.893Z,16.27
2023-05-23T01:41:56.469Z,16.29
2023-05-23T01:42:18.936Z,16.30
2023-05-23T01:42:41.770Z,16.32
2023-05-23T01:43:04.375Z,16.33
2023-05-23T01:43:26.798Z,16.35
2023-05-23T01:43:50.187Z,16.37
2023-05-23T01:44:12.583Z,16.37
2023-05-23T01:44:35.291Z,16.38
2023-05-23T01:44:59.838Z,16.39
2023-05-23T01:45:22.261Z,16.39
2023-05-23T01:45:44.798Z,16.39
2023-05-23T01:46:07.502Z,16.40
2023-05-23T01:46:30.373Z,16.39
2023-05-23T01:46:52.852Z,16.39
2023-05-23T01:47:15.277Z,16.39
2023-05-23T01:47:38.080Z,16.39
2023-05-23T01:48:00.517Z,16.38
2023-05-23T01:48:23.738Z,16.37
2023-05-23T01:48:46.176Z,16.36
2023-05-23T01:49:08.977Z,16.36
2023-05-23T01:49:31.812Z,16.36
2023-05-23T01:49:55.722Z,16.34
2023-05-23T01:50:18.467Z,16.34
2023-05-23T01:50:41.128Z,16.33
2023-05-23T01:51:03.628Z,16.33
2023-05-23T01:51:27.510Z,16.32
2023-05-23T01:51:49.893Z,16.32
2023-05-23T01:52:13.547Z,16.32
2023-05-23T01:52:36.195Z,16.31
2023-05-23T01:52:58.692Z,16.31
2023-05-23T01:53:23.050Z,16.32
2023-05-23T01:53:45.650Z,16.33
2023-05-23T01:54:08.211Z,16.34
2023-05-23T01:54:45.257Z,16.36
2023-05-23T01:55:09.874Z,16.37
2023-05-23T01:55:33.281Z,16.39
2023-05-23T01:55:56.042Z,16.40
2023-05-23T01:56:18.635Z,16.41
2023-05-23T01:56:41.036Z,16.42
2023-05-23T01:57:03.735Z,16.42
2023-05-23T01:57:26.584Z,16.42
2023-05-23T01:57:51.745Z,16.42
2023-05-23T01:58:15.051Z,16.43
2023-05-23T01:58:37.648Z,16.43
2023-05-23T01:59:00.229Z,16.42
2023-05-23T01:59:23.032Z,16.42
2023-05-23T02:00:00.084Z,16.42
2023-05-23T02:00:37.807Z,16.42
2023-05-23T02:01:14.436Z,16.41
2023-05-23T02:01:38.147Z,16.41
2023-05-23T02:02:00.702Z,16.41
2023-05-23T02:02:23.135Z,16.40
2023-05-23T02:02:46.028Z,16.40
2023-05-23T02:03:08.790Z,16.40
2023-05-23T02:03:31.356Z,16.40
2023-05-23T02:03:53.865Z,16.39
2023-05-23T02:04:16.482Z,16.39
2023-05-23T02:04:38.758Z,16.39
2023-05-23T02:05:01.294Z,16.40
2023-05-23T02:05:23.658Z,16.40
2023-05-23T02:05:45.953Z,16.41
2023-05-23T02:06:08.276Z,16.42
2023-05-23T02:06:32.078Z,16.43
2023-05-23T02:06:54.400Z,16.44
2023-05-23T02:07:16.648Z,16.45
2023-05-23T02:07:43.695Z,16.46
2023-05-23T02:08:05.965Z,16.47
2023-05-23T02:08:28.363Z,16.49
2023-05-23T02:08:51.707Z,16.50
2023-05-23T02:09:14.181Z,16.50
2023-05-23T02:09:36.451Z,16.50
2023-05-23T02:09:58.877Z,16.51
2023-05-23T02:10:21.481Z,16.51
2023-05-23T02:10:43.878Z,16.50
2023-05-23T02:11:08.738Z,16.49
2023-05-23T02:11:31.359Z,16.48
2023-05-23T02:11:53.832Z,16.47
2023-05-23T02:12:16.234Z,16.46
2023-05-23T02:12:38.632Z,16.45
2023-05-23T02:13:01.109Z,16.45
2023-05-23T02:13:24.141Z,16.43
2023-05-23T02:13:46.841Z,16.42
2023-05-23T02:14:09.696Z,16.42
2023-05-23T02:14:32.159Z,16.41
2023-05-23T02:14:55.482Z,16.40
2023-05-23T02:15:17.824Z,16.39
2023-05-23T02:15:40.350Z,16.39
2023-05-23T02:16:04.241Z,16.38
2023-05-23T02:16:26.732Z,16.38
2023-05-23T02:16:50.114Z,16.38
2023-05-23T02:17:12.683Z,16.37
2023-05-23T02:17:35.174Z,16.38
2023-05-23T02:17:58.014Z,16.39
2023-05-23T02:18:20.968Z,16.39
2023-05-23T02:18:46.547Z,16.41
2023-05-23T02:19:09.207Z,16.42
2023-05-23T02:19:31.576Z,16.43
2023-05-23T02:19:54.151Z,16.45
2023-05-23T02:20:19.174Z,16.46
2023-05-23T02:20:43.946Z,16.47
2023-05-23T02:21:06.425Z,16.47
2023-05-23T02:21:28.821Z,16.47
2023-05-23T02:21:52.545Z,16.48
2023-05-23T02:22:15.051Z,16.47
2023-05-23T02:22:38.502Z,16.47
2023-05-23T02:23:01.005Z,16.46
2023-05-23T02:23:23.366Z,16.46
2023-05-23T02:23:45.672Z,16.45
2023-05-23T02:24:07.950Z,16.45
2023-05-23T02:24:30.254Z,16.45
2023-05-23T02:24:52.677Z,16.44
2023-05-23T02:25:16.111Z,16.44
2023-05-23T02:25:38.610Z,16.43
2023-05-23T02:26:02.510Z,16.43
2023-05-23T02:26:25.113Z,16.42
2023-05-23T02:26:47.510Z,16.42
2023-05-23T02:27:09.774Z,16.42
2023-05-23T02:27:32.103Z,16.41
2023-05-23T02:27:54.809Z,16.41
2023-05-23T02:28:17.621Z,16.40
2023-05-23T02:28:39.937Z,16.40
2023-05-23T02:29:03.589Z,16.40
2023-05-23T02:29:25.994Z,16.39
2023-05-23T02:29:48.367Z,16.40
2023-05-23T02:30:11.343Z,16.40
2023-05-23T02:30:33.745Z,16.41
2023-05-23T02:30:56.208Z,16.42
2023-05-23T02:31:19.402Z,16.43
2023-05-23T02:31:42.153Z,16.44
2023-05-23T02:32:05.001Z,16.46
2023-05-23T02:32:27.514Z,16.46
2023-05-23T02:32:51.950Z,16.48
2023-05-23T02:33:14.555Z,16.49
2023-05-23T02:33:37.119Z,16.51
2023-05-23T02:33:59.732Z,16.52
2023-05-23T02:34:22.230Z,16.53
2023-05-23T02:34:46.849Z,16.54
2023-05-23T02:35:10.436Z,16.54
2023-05-23T02:35:33.198Z,16.54
2023-05-23T02:35:55.812Z,16.54
2023-05-23T02:36:18.306Z,16.54
2023-05-23T02:36:40.830Z,16.53
2023-05-23T02:37:03.203Z,16.53
2023-05-23T02:37:25.906Z,16.52
2023-05-23T02:37:48.714Z,16.52
2023-05-23T02:38:11.245Z,16.51
2023-05-23T02:38:35.966Z,16.50
2023-05-23T02:38:58.742Z,16.49
2023-05-23T02:39:21.377Z,16.49
2023-05-23T02:39:44.012Z,16.48
2023-05-23T02:40:07.918Z,16.48
2023-05-23T02:40:31.229Z,16.48
2023-05-23T02:40:53.880Z,16.46
2023-05-23T02:41:16.267Z,16.46
2023-05-23T02:41:39.378Z,16.45
2023-05-23T02:42:02.327Z,16.45
2023-05-23T02:42:24.854Z,16.46
2023-05-23T02:42:47.358Z,16.46
2023-05-23T02:43:09.757Z,16.46
2023-05-23T02:43:32.127Z,16.47
2023-05-23T02:43:54.755Z,16.48
2023-05-23T02:44:19.823Z,16.49
2023-05-23T02:44:42.316Z,16.50
2023-05-23T02:45:04.856Z,16.51
2023-05-23T02:45:27.314Z,16.52
2023-05-23T02:45:49.610Z,16.53
2023-05-23T02:46:13.748Z,16.54
2023-05-23T02:46:36.190Z,16.54
2023-05-23T02:46:58.983Z,16.54
2023-05-23T02:47:21.373Z,16.53
2023-05-23T02:47:44.384Z,16.53
2023-05-23T02:48:06.814Z,16.53
2023-05-23T02:48:29.386Z,16.52
2023-05-23T02:48:51.874Z,16.51
2023-05-23T02:49:14.263Z,16.50
2023-05-23T02:49:36.555Z,16.49
2023-05-23T02:49:58.954Z,16.49
2023-05-23T02:50:21.351Z,16.48
2023-05-23T02:50:43.763Z,16.47
2023-05-23T02:51:06.249Z,16.47
2023-05-23T02:51:28.542Z,16.46
2023-05-23T02:51:51.155Z,16.45
2023-05-23T02:52:13.985Z,16.45
2023-05-23T02:52:36.237Z,16.45
2023-05-23T02:52:58.856Z,16.44
2023-05-23T02:53:22.793Z,16.43
2023-05-23T02:53:45.184Z,16.43
2023-05-23T02:54:07.524Z,16.43
2023-05-23T02:54:31.409Z,16.43
2023-05-23T02:54:53.858Z,16.43
2023-05-23T02:55:16.312Z,16.43
2023-05-23T02:55:41.469Z,16.43
2023-05-23T02:56:04.178Z,16.44
2023-05-23T02:56:27.113Z,16.45
2023-05-23T02:56:50.914Z,16.45
2023-05-23T02:57:13.418Z,16.46
2023-05-23T02:57:36.852Z,16.46
2023-05-23T02:57:59.346Z,16.47
2023-05-23T02:58:21.837Z,16.47
2023-05-23T02:58:44.169Z,16.47
2023-05-23T02:59:06.788Z,16.47
2023-05-23T02:59:29.166Z,16.46
2023-05-23T02:59:51.460Z,16.46
2023-05-23T03:00:14.245Z,16.46
2023-05-23T03:00:37.560Z,16.45
2023-05-23T03:00:59.884Z,16.43
2023-05-23T03:01:22.380Z,16.42
2023-05-23T03:01:44.922Z,16.41
2023-05-23T03:02:07.725Z,16.40
2023-05-23T03:02:30.342Z,16.39
2023-05-23T03:02:52.908Z,16.38
2023-05-23T03:03:17.134Z,16.37
2023-05-23T03:03:41.899Z,16.36
2023-05-23T03:04:04.627Z,16.35
2023-05-23T03:04:27.893Z,16.34
2023-05-23T03:04:51.211Z,16.34
2023-05-23T03:05:13.711Z,16.34
2023-05-23T03:05:36.827Z,16.35
2023-05-23T03:05:59.428Z,16.35
2023-05-23T03:06:22.840Z,16.36
2023-05-23T03:06:45.341Z,16.37
2023-05-23T03:07:14.032Z,16.37
2023-05-23T03:07:44.364Z,16.39
2023-05-23T03:08:07.068Z,16.40
2023-05-23T03:08:30.077Z,16.41
2023-05-23T03:08:52.588Z,16.42
2023-05-23T03:09:19.674Z,16.43
2023-05-23T03:09:42.176Z,16.43
2023-05-23T03:10:04.890Z,16.43
2023-05-23T03:10:27.379Z,16.42
2023-05-23T03:10:51.412Z,16.42
2023-05-23T03:11:13.921Z,16.41
2023-05-23T03:11:39.597Z,16.41
2023-05-23T03:12:01.992Z,16.40
2023-05-23T03:12:24.997Z,16.40
2023-05-23T03:12:48.825Z,16.38
2023-05-23T03:13:11.838Z,16.38
2023-05-23T03:13:38.123Z,16.38
2023-05-23T03:14:00.630Z,16.37
2023-05-23T03:14:23.127Z,16.36
2023-05-23T03:14:45.723Z,16.36
2023-05-23T03:15:08.795Z,16.35
2023-05-23T03:15:31.963Z,16.35
2023-05-23T03:15:54.474Z,16.34
2023-05-23T03:16:17.107Z,16.35
2023-05-23T03:16:39.774Z,16.35
2023-05-23T03:17:04.312Z,16.35
2023-05-23T03:17:26.828Z,16.37
2023-05-23T03:17:49.354Z,16.38
2023-05-23T03:18:13.036Z,16.40
2023-05-23T03:18:35.542Z,16.41
2023-05-23T03:18:58.068Z,16.43
2023-05-23T03:19:20.583Z,16.44
2023-05-23T03:19:43.159Z,16.46
2023-05-23T03:20:06.567Z,16.47
2023-05-23T03:20:29.071Z,16.48
2023-05-23T03:20:51.669Z,16.50
2023-05-23T03:21:14.162Z,16.51
2023-05-23T03:21:36.676Z,16.52
2023-05-23T03:21:59.169Z,16.51
2023-05-23T03:22:21.682Z,16.52
2023-05-23T03:22:45.982Z,16.52
2023-05-23T03:23:08.610Z,16.51
2023-05-23T03:23:31.104Z,16.51
2023-05-23T03:23:53.521Z,16.51
2023-05-23T03:24:16.315Z,16.50
2023-05-23T03:24:39.533Z,16.50
2023-05-23T03:25:02.133Z,16.49
2023-05-23T03:25:24.657Z,16.50
2023-05-23T03:25:47.236Z,16.49
2023-05-23T03:26:09.738Z,16.48
2023-05-23T03:26:32.762Z,16.48
2023-05-23T03:26:55.250Z,16.48
2023-05-23T03:27:17.748Z,16.47
2023-05-23T03:27:40.360Z,16.47
2023-05-23T03:28:02.954Z,16.47
2023-05-23T03:28:25.556Z,16.47
2023-05-23T03:28:48.671Z,16.47
2023-05-23T03:29:11.580Z,16.49
2023-05-23T03:29:34.085Z,16.49
2023-05-23T03:29:56.477Z,16.51
2023-05-23T03:30:19.189Z,16.52
2023-05-23T03:30:41.894Z,16.53
2023-05-23T03:31:04.392Z,16.55
2023-05-23T03:31:27.053Z,16.56
2023-05-23T03:31:49.839Z,16.57
2023-05-23T03:32:12.538Z,16.58
2023-05-23T03:32:35.144Z,16.59
2023-05-23T03:32:57.835Z,16.60
2023-05-23T03:33:21.145Z,16.60
2023-05-23T03:33:43.639Z,16.60
2023-05-23T03:34:06.131Z,16.60
2023-05-23T03:34:28.634Z,16.60
2023-05-23T03:34:51.136Z,16.59
2023-05-23T03:35:13.638Z,16.59
2023-05-23T03:35:36.246Z,16.59
2023-05-23T03:35:58.840Z,16.58
2023-05-23T03:36:22.265Z,16.57
2023-05-23T03:36:44.863Z,16.57
2023-05-23T03:37:07.266Z,16.56
2023-05-23T03:37:29.765Z,16.55
2023-05-23T03:37:52.159Z,16.55
2023-05-23T03:38:14.968Z,16.54
2023-05-23T03:38:37.396Z,16.53
2023-05-23T03:38:59.976Z,16.52
2023-05-23T03:39:23.591Z,16.52
2023-05-23T03:39:46.408Z,16.52
2023-05-23T03:40:10.024Z,16.52
2023-05-23T03:40:32.740Z,16.52
2023-05-23T03:40:56.152Z,16.54
2023-05-23T03:41:18.753Z,16.55
2023-05-23T03:41:41.762Z,16.55
2023-05-23T03:42:04.899Z,16.56
2023-05-23T03:42:28.415Z,16.58
2023-05-23T03:43:01.746Z,16.59
2023-05-23T03:43:24.450Z,16.62
2023-05-23T03:43:46.959Z,16.62
2023-05-23T03:44:09.457Z,16.63
2023-05-23T03:44:32.154Z,16.63
2023-05-23T03:44:54.654Z,16.65
2023-05-23T03:45:18.587Z,16.65
2023-05-23T03:45:42.119Z,16.66
2023-05-23T03:46:08.423Z,16.66
2023-05-23T03:46:30.914Z,16.66
2023-05-23T03:46:53.706Z,16.65
2023-05-23T03:47:16.403Z,16.65
2023-05-23T03:47:39.338Z,16.64
2023-05-23T03:48:01.879Z,16.64
2023-05-23T03:48:24.622Z,16.63
2023-05-23T03:48:47.328Z,16.62
2023-05-23T03:49:10.041Z,16.61
2023-05-23T03:49:32.530Z,16.61
2023-05-23T03:49:55.038Z,16.60
2023-05-23T03:50:17.534Z,16.59
2023-05-23T03:50:39.936Z,16.59
2023-05-23T03:51:02.961Z,16.58
2023-05-23T03:51:26.471Z,16.58
2023-05-23T03:51:48.973Z,16.58
2023-05-23T03:52:11.890Z,16.58
2023-05-23T03:52:34.389Z,16.59
2023-05-23T03:52:56.880Z,16.60
2023-05-23T03:53:19.890Z,16.60
2023-05-23T03:53:42.599Z,16.60
2023-05-23T03:54:05.300Z,16.61
2023-05-23T03:54:28.413Z,16.61
2023-05-23T03:54:51.120Z,16.62
2023-05-23T03:55:13.620Z,16.61
2023-05-23T03:55:36.121Z,16.61
2023-05-23T03:56:23.372Z,16.61
2023-05-23T03:56:45.878Z,16.61
2023-05-23T03:57:08.412Z,16.60
2023-05-23T03:57:31.198Z,16.59
2023-05-23T03:57:53.783Z,16.57
2023-05-23T03:58:16.591Z,16.57
2023-05-23T03:58:40.021Z,16.55
2023-05-23T03:59:07.012Z,16.53
2023-05-23T03:59:29.625Z,16.52
2023-05-23T03:59:53.242Z,16.50
2023-05-23T04:00:15.947Z,16.48
2023-05-23T04:00:41.309Z,16.47
2023-05-23T04:01:04.952Z,16.46
2023-05-23T04:01:28.047Z,16.44
2023-05-23T04:01:50.868Z,16.43
2023-05-23T04:02:14.306Z,16.43
2023-05-23T04:02:36.900Z,16.43
2023-05-23T04:02:59.626Z,16.43
2023-05-23T04:03:22.440Z,16.43
2023-05-23T04:03:46.712Z,16.45
2023-05-23T04:04:09.781Z,16.45
2023-05-23T04:04:33.308Z,16.46
2023-05-23T04:04:57.298Z,16.47
2023-05-23T04:05:20.215Z,16.49
2023-05-23T04:05:44.245Z,16.50
2023-05-23T04:06:06.953Z,16.51
2023-05-23T04:06:32.006Z,16.52
2023-05-23T04:06:54.506Z,16.52
2023-05-23T04:07:17.419Z,16.52
2023-05-23T04:07:41.761Z,16.52
2023-05-23T04:08:05.180Z,16.52
2023-05-23T04:08:29.637Z,16.52
2023-05-23T04:08:52.125Z,16.52
2023-05-23T04:09:14.834Z,16.52
2023-05-23T04:09:39.599Z,16.51
2023-05-23T04:10:04.436Z,16.52
2023-05-23T04:10:27.237Z,16.52
2023-05-23T04:10:49.840Z,16.52
2023-05-23T04:11:12.343Z,16.52
2023-05-23T04:11:36.895Z,16.52
2023-05-23T04:11:59.390Z,16.52
2023-05-23T04:12:24.039Z,16.53
2023-05-23T04:12:48.268Z,16.53
2023-05-23T04:13:13.027Z,16.54
2023-05-23T04:13:35.844Z,16.55
2023-05-23T04:13:58.641Z,16.56
2023-05-23T04:14:22.779Z,16.58
2023-05-23T04:14:49.512Z,16.59
2023-05-23T04:15:12.176Z,16.60
2023-05-23T04:15:45.491Z,16.62
2023-05-23T04:16:08.772Z,16.62
2023-05-23T04:16:33.556Z,16.64
2023-05-23T04:16:56.418Z,16.65
2023-05-23T04:17:18.998Z,16.65
2023-05-23T04:17:44.492Z,16.66
2023-05-23T04:18:09.390Z,16.67
2023-05-23T04:18:33.612Z,16.67
2023-05-23T04:18:56.091Z,16.67
2023-05-23T04:19:18.755Z,16.67
2023-05-23T04:19:41.773Z,16.68
2023-05-23T04:20:06.100Z,16.67
2023-05-23T04:20:28.614Z,16.67
2023-05-23T04:20:51.217Z,16.67
2023-05-23T04:21:13.920Z,16.66
2023-05-23T04:21:45.415Z,16.66
2023-05-23T04:22:10.681Z,16.65
2023-05-23T04:22:33.078Z,16.65
2023-05-23T04:22:55.992Z,16.64
2023-05-23T04:23:20.224Z,16.65
2023-05-23T04:23:47.541Z,16.66
2023-05-23T04:24:10.032Z,16.67
2023-05-23T04:24:32.441Z,16.68
2023-05-23T04:24:55.134Z,16.69
2023-05-23T04:25:20.498Z,16.72
2023-05-23T04:26:06.134Z,16.74
2023-05-23T04:26:31.378Z,16.75
2023-05-23T04:26:56.466Z,16.76
2023-05-23T04:27:19.047Z,16.76
2023-05-23T04:27:41.393Z,16.76
2023-05-23T04:28:05.577Z,16.75
2023-05-23T04:28:28.385Z,16.74
2023-05-23T04:28:54.329Z,16.73
2023-05-23T04:29:17.264Z,16.72
2023-05-23T04:29:40.178Z,16.72
2023-05-23T04:30:02.884Z,16.71
2023-05-23T04:30:26.204Z,16.69
2023-05-23T04:30:49.648Z,16.69
2023-05-23T04:31:15.329Z,16.67
2023-05-23T04:31:38.377Z,16.66
2023-05-23T04:32:01.109Z,16.65
2023-05-23T04:32:24.513Z,16.64
2023-05-23T04:32:47.172Z,16.62
2023-05-23T04:33:10.507Z,16.61
2023-05-23T04:33:34.511Z,16.60
2023-05-23T04:33:58.621Z,16.59
2023-05-23T04:34:22.665Z,16.58
2023-05-23T04:34:45.475Z,16.59
2023-05-23T04:35:08.903Z,16.59
2023-05-23T04:35:34.414Z,16.61
2023-05-23T04:35:57.517Z,16.58
2023-05-23T04:36:20.273Z,16.63
2023-05-23T04:36:47.076Z,16.64
2023-05-23T04:37:09.671Z,16.65
2023-05-23T04:37:33.233Z,16.65
2023-05-23T04:37:56.934Z,16.66
2023-05-23T04:38:22.283Z,16.66
2023-05-23T04:38:45.709Z,16.65
2023-05-23T04:39:09.653Z,16.65
2023-05-23T04:39:37.013Z,16.64
2023-05-23T04:40:15.100Z,16.63
2023-05-23T04:40:58.278Z,16.60
2023-05-23T04:41:38.934Z,16.58
2023-05-23T04:42:15.164Z,16.57
2023-05-23T04:42:57.099Z,16.56
2023-05-23T04:43:34.533Z,16.56
2023-05-23T04:44:10.331Z,16.56
2023-05-23T04:44:37.763Z,16.56
2023-05-23T04:45:09.387Z,16.57
2023-05-23T04:45:50.280Z,16.59
2023-05-23T04:46:26.876Z,16.62
2023-05-23T04:47:09.304Z,16.63
2023-05-23T04:47:46.863Z,16.66
2023-05-23T04:48:22.082Z,16.67
2023-05-23T04:48:45.059Z,16.67
2023-05-23T04:49:08.196Z,16.68
2023-05-23T04:49:30.512Z,16.68
2023-05-23T04:49:54.126Z,16.68
2023-05-23T04:50:16.980Z,16.68
2023-05-23T04:50:40.769Z,16.68
2023-05-23T04:51:06.589Z,16.68
2023-05-23T04:51:29.176Z,16.68
2023-05-23T04:51:56.810Z,16.68
2023-05-23T04:52:30.041Z,16.68
2023-05-23T04:52:52.545Z,16.67
2023-05-23T04:53:15.146Z,16.67
2023-05-23T04:53:38.919Z,16.67
2023-05-23T04:54:01.987Z,16.67
2023-05-23T04:54:24.512Z,16.66
2023-05-23T04:54:49.058Z,16.67
2023-05-23T04:55:11.682Z,16.68
2023-05-23T04:55:34.547Z,16.69
2023-05-23T04:55:57.461Z,16.70
2023-05-23T04:56:21.994Z,16.70
2023-05-23T04:56:44.937Z,16.71
2023-05-23T04:57:07.414Z,16.73
2023-05-23T04:57:29.808Z,16.73
2023-05-23T04:57:52.723Z,16.73
2023-05-23T04:58:15.371Z,16.75
2023-05-23T04:58:38.129Z,16.74
2023-05-23T04:59:02.907Z,16.74
2023-05-23T04:59:26.002Z,16.73
2023-05-23T04:59:48.390Z,16.73
2023-05-23T05:00:11.749Z,16.73
2023-05-23T05:00:34.558Z,16.73
2023-05-23T05:00:57.043Z,16.72
2023-05-23T05:01:21.057Z,16.71
2023-05-23T05:01:44.845Z,16.69
2023-05-23T05:02:09.937Z,16.67
2023-05-23T05:02:36.896Z,16.66
2023-05-23T05:02:59.394Z,16.65
2023-05-23T05:03:25.421Z,16.64
2023-05-23T05:03:49.427Z,16.63
2023-05-23T05:04:12.034Z,16.61
2023-05-23T05:04:34.970Z,16.60
2023-05-23T05:04:57.875Z,16.60
2023-05-23T05:05:20.276Z,16.59
2023-05-23T05:05:43.192Z,16.60
2023-05-23T05:06:06.396Z,16.62
2023-05-23T05:06:29.201Z,16.63
2023-05-23T05:06:52.740Z,16.64
2023-05-23T05:07:16.457Z,16.65